sensor_id;sensor_type;location;lat;lon;timestamp;P1;durP1;ratioP1;P2;durP2;ratioP2
17965;SDS011;9108;53.204;10.424;2024-03-02T00:00:04;65.50;;;26.73;;
17965;SDS011;9108;53.204;10.424;2024-03-02T00:02:40;62.22;;;26.13;;
17965;SDS011;9108;53.204;10.424;2024-03-02T00:05:08;63.50;;;26.92;;
17965;SDS011;9108;53.204;10.424;2024-03-02T00:07:38;67.50;;;26.95;;
17965;SDS011;9108;53.204;10.424;2024-03-02T00:10:07;63.40;;;26.67;;
17965;SDS011;9108;53.204;10.424;2024-03-02T00:12:35;62.30;;;26.83;;
17965;SDS011;9108;53.204;10.424;2024-03-02T00:15:04;67.22;;;27.80;;
17965;SDS011;9108;53.204;10.424;2024-03-02T00:17:32;65.78;;;27.13;;
17965;SDS011;9108;53.204;10.424;2024-03-02T00:20:00;69.67;;;28.00;;
17965;SDS011;9108;53.204;10.424;2024-03-02T00:22:30;65.78;;;27.77;;
17965;SDS011;9108;53.204;10.424;2024-03-02T00:24:57;68.00;;;28.33;;
17965;SDS011;9108;53.204;10.424;2024-03-02T00:27:24;70.03;;;28.60;;
17965;SDS011;9108;53.204;10.424;2024-03-02T00:29:52;67.50;;;27.58;;
17965;SDS011;9108;53.204;10.424;2024-03-02T00:32:19;67.43;;;28.27;;
17965;SDS011;9108;53.204;10.424;2024-03-02T00:34:46;71.35;;;28.42;;
17965;SDS011;9108;53.204;10.424;2024-03-02T00:37:15;69.63;;;28.23;;
17965;SDS011;9108;53.204;10.424;2024-03-02T00:39:42;69.23;;;29.00;;
17965;SDS011;9108;53.204;10.424;2024-03-02T00:42:09;69.30;;;28.73;;
17965;SDS011;9108;53.204;10.424;2024-03-02T00:44:38;72.35;;;28.95;;
17965;SDS011;9108;53.204;10.424;2024-03-02T00:47:05;69.45;;;28.45;;
17965;SDS011;9108;53.204;10.424;2024-03-02T00:49:32;71.07;;;28.85;;
17965;SDS011;9108;53.204;10.424;2024-03-02T00:51:59;69.40;;;28.80;;
17965;SDS011;9108;53.204;10.424;2024-03-02T00:54:28;71.60;;;29.45;;
17965;SDS011;9108;53.204;10.424;2024-03-02T00:56:56;72.20;;;29.05;;
17965;SDS011;9108;53.204;10.424;2024-03-02T00:59:24;68.38;;;28.67;;
17965;SDS011;9108;53.204;10.424;2024-03-02T06:30:30;82.20;;;36.28;;
17965;SDS011;9108;53.204;10.424;2024-03-02T06:32:57;102.65;;;43.20;;
17965;SDS011;9108;53.204;10.424;2024-03-02T06:35:25;112.10;;;47.33;;
17965;SDS011;9108;53.204;10.424;2024-03-02T06:37:52;98.03;;;41.58;;
17965;SDS011;9108;53.204;10.424;2024-03-02T06:40:19;77.43;;;32.78;;
17965;SDS011;9108;53.204;10.424;2024-03-02T06:42:46;78.78;;;34.75;;
17965;SDS011;9108;53.204;10.424;2024-03-02T06:45:16;75.37;;;33.17;;
17965;SDS011;9108;53.204;10.424;2024-03-02T06:47:46;81.80;;;36.47;;
17965;SDS011;9108;53.204;10.424;2024-03-02T06:50:13;76.40;;;34.15;;
17965;SDS011;9108;53.204;10.424;2024-03-02T06:52:40;71.78;;;31.05;;
17965;SDS011;9108;53.204;10.424;2024-03-02T06:55:08;73.80;;;31.55;;
17965;SDS011;9108;53.204;10.424;2024-03-02T06:57:35;75.03;;;32.00;;
17965;SDS011;9108;53.204;10.424;2024-03-02T07:00:06;71.72;;;31.75;;
17965;SDS011;9108;53.204;10.424;2024-03-02T07:02:34;76.07;;;31.27;;
17965;SDS011;9108;53.204;10.424;2024-03-02T07:05:02;76.10;;;31.45;;
17965;SDS011;9108;53.204;10.424;2024-03-02T07:07:30;67.50;;;29.23;;
17965;SDS011;9108;53.204;10.424;2024-03-02T07:09:59;72.45;;;30.73;;
17965;SDS011;9108;53.204;10.424;2024-03-02T07:12:26;71.43;;;31.13;;
17965;SDS011;9108;53.204;10.424;2024-03-02T07:14:53;72.13;;;31.05;;
17965;SDS011;9108;53.204;10.424;2024-03-02T07:17:36;70.25;;;30.75;;
17965;SDS011;9108;53.204;10.424;2024-03-02T07:20:05;68.55;;;29.83;;
17965;SDS011;9108;53.204;10.424;2024-03-02T07:22:33;71.80;;;32.28;;
17965;SDS011;9108;53.204;10.424;2024-03-02T07:25:00;71.53;;;31.15;;
17965;SDS011;9108;53.204;10.424;2024-03-02T07:27:28;71.60;;;32.72;;
17965;SDS011;9108;53.204;10.424;2024-03-02T07:29:55;79.20;;;34.10;;
17965;SDS011;9108;53.204;10.424;2024-03-02T07:32:22;73.18;;;31.73;;
17965;SDS011;9108;53.204;10.424;2024-03-02T07:34:48;71.57;;;32.13;;
17965;SDS011;9108;53.204;10.424;2024-03-02T07:37:17;74.05;;;33.13;;
17965;SDS011;9108;53.204;10.424;2024-03-02T07:39:47;61.83;;;28.17;;
17965;SDS011;9108;53.204;10.424;2024-03-02T07:42:14;65.97;;;28.60;;
17965;SDS011;9108;53.204;10.424;2024-03-02T07:44:43;65.00;;;28.60;;
17965;SDS011;9108;53.204;10.424;2024-03-02T07:47:10;71.32;;;29.00;;
17965;SDS011;9108;53.204;10.424;2024-03-02T07:49:37;63.35;;;27.52;;
17965;SDS011;9108;53.204;10.424;2024-03-02T07:52:08;60.47;;;27.40;;
17965;SDS011;9108;53.204;10.424;2024-03-02T07:54:36;61.72;;;27.15;;
17965;SDS011;9108;53.204;10.424;2024-03-02T07:57:04;57.42;;;25.92;;
17965;SDS011;9108;53.204;10.424;2024-03-02T07:59:32;59.65;;;26.55;;
17965;SDS011;9108;53.204;10.424;2024-03-02T08:01:59;59.70;;;26.58;;
17965;SDS011;9108;53.204;10.424;2024-03-02T08:04:26;58.33;;;26.20;;
17965;SDS011;9108;53.204;10.424;2024-03-02T08:06:53;55.05;;;25.42;;
17965;SDS011;9108;53.204;10.424;2024-03-02T08:09:20;54.88;;;24.67;;
17965;SDS011;9108;53.204;10.424;2024-03-02T08:11:49;50.75;;;23.17;;
17965;SDS011;9108;53.204;10.424;2024-03-02T08:14:16;51.38;;;24.05;;
17965;SDS011;9108;53.204;10.424;2024-03-02T08:16:43;46.88;;;22.23;;
17965;SDS011;9108;53.204;10.424;2024-03-02T08:19:11;49.95;;;23.13;;
17965;SDS011;9108;53.204;10.424;2024-03-02T08:21:38;47.60;;;23.08;;
17965;SDS011;9108;53.204;10.424;2024-03-02T08:24:05;50.20;;;23.42;;
17965;SDS011;9108;53.204;10.424;2024-03-02T08:26:33;50.40;;;23.05;;
17965;SDS011;9108;53.204;10.424;2024-03-02T08:29:01;47.80;;;21.77;;
17965;SDS011;9108;53.204;10.424;2024-03-02T08:31:29;45.03;;;21.42;;
17965;SDS011;9108;53.204;10.424;2024-03-02T08:33:56;42.35;;;20.40;;
17965;SDS011;9108;53.204;10.424;2024-03-02T08:36:23;43.55;;;21.40;;
17965;SDS011;9108;53.204;10.424;2024-03-02T08:38:51;44.13;;;20.50;;
17965;SDS011;9108;53.204;10.424;2024-03-02T08:41:18;39.83;;;19.75;;
17965;SDS011;9108;53.204;10.424;2024-03-02T08:43:46;39.50;;;19.70;;
17965;SDS011;9108;53.204;10.424;2024-03-02T08:46:14;40.27;;;19.60;;
17965;SDS011;9108;53.204;10.424;2024-03-02T08:48:41;40.50;;;19.60;;
17965;SDS011;9108;53.204;10.424;2024-03-02T08:51:08;38.95;;;19.33;;
17965;SDS011;9108;53.204;10.424;2024-03-02T08:53:36;38.05;;;19.08;;
17965;SDS011;9108;53.204;10.424;2024-03-02T08:56:04;35.50;;;17.52;;
17965;SDS011;9108;53.204;10.424;2024-03-02T08:58:31;39.05;;;18.77;;
17965;SDS011;9108;53.204;10.424;2024-03-02T09:00:59;34.25;;;17.77;;
17965;SDS011;9108;53.204;10.424;2024-03-02T09:03:28;33.40;;;17.00;;
17965;SDS011;9108;53.204;10.424;2024-03-02T09:05:58;34.40;;;17.20;;
17965;SDS011;9108;53.204;10.424;2024-03-02T09:08:25;33.92;;;17.08;;
17965;SDS011;9108;53.204;10.424;2024-03-02T09:10:52;31.33;;;16.58;;
17965;SDS011;9108;53.204;10.424;2024-03-02T09:13:20;30.08;;;16.20;;
17965;SDS011;9108;53.204;10.424;2024-03-02T09:15:48;31.95;;;16.67;;
17965;SDS011;9108;53.204;10.424;2024-03-02T09:18:15;30.15;;;16.15;;
17965;SDS011;9108;53.204;10.424;2024-03-02T09:20:43;29.85;;;15.65;;
17965;SDS011;9108;53.204;10.424;2024-03-02T09:23:11;29.83;;;15.85;;
17965;SDS011;9108;53.204;10.424;2024-03-02T09:25:38;28.35;;;15.32;;
17965;SDS011;9108;53.204;10.424;2024-03-02T09:28:05;28.83;;;15.00;;
17965;SDS011;9108;53.204;10.424;2024-03-02T09:30:32;28.40;;;15.15;;
17965;SDS011;9108;53.204;10.424;2024-03-02T09:32:59;27.35;;;14.18;;
17965;SDS011;9108;53.204;10.424;2024-03-02T09:35:27;28.38;;;14.50;;
17965;SDS011;9108;53.204;10.424;2024-03-02T09:37:56;26.45;;;14.55;;
17965;SDS011;9108;53.204;10.424;2024-03-02T09:40:23;28.55;;;14.70;;
17965;SDS011;9108;53.204;10.424;2024-03-02T09:42:50;28.35;;;14.55;;
17965;SDS011;9108;53.204;10.424;2024-03-02T09:45:18;28.77;;;14.40;;
17965;SDS011;9108;53.204;10.424;2024-03-02T09:47:48;26.77;;;14.10;;
17965;SDS011;9108;53.204;10.424;2024-03-02T09:50:15;27.02;;;14.27;;
17965;SDS011;9108;53.204;10.424;2024-03-02T09:52:42;27.20;;;14.68;;
17965;SDS011;9108;53.204;10.424;2024-03-02T09:55:11;26.75;;;14.02;;
17965;SDS011;9108;53.204;10.424;2024-03-02T09:57:38;27.25;;;14.10;;
17965;SDS011;9108;53.204;10.424;2024-03-02T10:00:10;27.30;;;14.00;;
17965;SDS011;9108;53.204;10.424;2024-03-02T10:02:39;28.60;;;14.57;;
17965;SDS011;9108;53.204;10.424;2024-03-02T10:05:07;28.15;;;15.00;;
17965;SDS011;9108;53.204;10.424;2024-03-02T10:07:34;28.17;;;14.40;;
17965;SDS011;9108;53.204;10.424;2024-03-02T10:10:13;27.10;;;14.63;;
17965;SDS011;9108;53.204;10.424;2024-03-02T10:12:40;26.43;;;14.40;;
17965;SDS011;9108;53.204;10.424;2024-03-02T10:15:10;29.13;;;14.63;;
17965;SDS011;9108;53.204;10.424;2024-03-02T10:17:37;26.98;;;13.95;;
17965;SDS011;9108;53.204;10.424;2024-03-02T10:20:20;25.38;;;13.05;;
17965;SDS011;9108;53.204;10.424;2024-03-02T10:22:49;26.92;;;13.68;;
17965;SDS011;9108;53.204;10.424;2024-03-02T10:25:29;27.85;;;13.77;;
17965;SDS011;9108;53.204;10.424;2024-03-02T10:27:57;25.92;;;13.40;;
17965;SDS011;9108;53.204;10.424;2024-03-02T10:30:25;27.80;;;14.30;;
17965;SDS011;9108;53.204;10.424;2024-03-02T10:32:53;34.03;;;16.30;;
17965;SDS011;9108;53.204;10.424;2024-03-02T10:35:20;30.25;;;15.65;;
17965;SDS011;9108;53.204;10.424;2024-03-02T10:37:48;29.40;;;15.00;;
17965;SDS011;9108;53.204;10.424;2024-03-02T10:40:15;25.77;;;12.98;;
17965;SDS011;9108;53.204;10.424;2024-03-02T10:42:44;25.65;;;13.70;;
17965;SDS011;9108;53.204;10.424;2024-03-02T10:45:12;40.80;;;20.13;;
17965;SDS011;9108;53.204;10.424;2024-03-02T10:47:41;29.90;;;15.33;;
17965;SDS011;9108;53.204;10.424;2024-03-02T10:50:09;27.48;;;13.75;;
17965;SDS011;9108;53.204;10.424;2024-03-02T10:52:36;26.58;;;14.32;;
17965;SDS011;9108;53.204;10.424;2024-03-02T10:55:08;34.03;;;16.90;;
17965;SDS011;9108;53.204;10.424;2024-03-02T10:57:39;28.38;;;14.90;;
17965;SDS011;9108;53.204;10.424;2024-03-02T11:00:11;30.23;;;14.02;;
17965;SDS011;9108;53.204;10.424;2024-03-02T11:02:42;26.98;;;13.75;;
17965;SDS011;9108;53.204;10.424;2024-03-02T11:05:09;28.30;;;14.32;;
17965;SDS011;9108;53.204;10.424;2024-03-02T11:07:37;27.67;;;14.15;;
17965;SDS011;9108;53.204;10.424;2024-03-02T11:10:05;27.25;;;13.40;;
17965;SDS011;9108;53.204;10.424;2024-03-02T11:12:36;26.55;;;13.27;;
17965;SDS011;9108;53.204;10.424;2024-03-02T11:15:05;26.60;;;14.10;;
17965;SDS011;9108;53.204;10.424;2024-03-02T11:17:38;27.40;;;14.95;;
17965;SDS011;9108;53.204;10.424;2024-03-02T11:20:06;27.73;;;14.67;;
17965;SDS011;9108;53.204;10.424;2024-03-02T11:22:35;27.27;;;14.20;;
17965;SDS011;9108;53.204;10.424;2024-03-02T11:25:03;28.10;;;14.63;;
17965;SDS011;9108;53.204;10.424;2024-03-02T11:30:26;27.15;;;13.93;;
17965;SDS011;9108;53.204;10.424;2024-03-02T11:33:15;27.05;;;14.40;;
17965;SDS011;9108;53.204;10.424;2024-03-02T11:35:52;25.70;;;13.80;;
17965;SDS011;9108;53.204;10.424;2024-03-02T11:38:19;27.02;;;14.00;;
17965;SDS011;9108;53.204;10.424;2024-03-02T11:40:46;26.35;;;13.48;;
17965;SDS011;9108;53.204;10.424;2024-03-02T11:43:13;26.15;;;12.27;;
17965;SDS011;9108;53.204;10.424;2024-03-02T11:45:43;26.15;;;12.32;;
17965;SDS011;9108;53.204;10.424;2024-03-02T11:48:11;25.27;;;13.07;;
17965;SDS011;9108;53.204;10.424;2024-03-02T11:50:41;26.05;;;13.32;;
17965;SDS011;9108;53.204;10.424;2024-03-02T11:53:09;24.35;;;12.65;;
17965;SDS011;9108;53.204;10.424;2024-03-02T11:55:38;27.38;;;13.50;;
17965;SDS011;9108;53.204;10.424;2024-03-02T11:58:05;26.47;;;13.67;;
17965;SDS011;9108;53.204;10.424;2024-03-02T12:00:33;26.02;;;14.07;;
17965;SDS011;9108;53.204;10.424;2024-03-02T12:03:00;27.00;;;13.35;;
17965;SDS011;9108;53.204;10.424;2024-03-02T12:05:27;22.00;;;11.70;;
17965;SDS011;9108;53.204;10.424;2024-03-02T12:07:57;24.35;;;12.02;;
17965;SDS011;9108;53.204;10.424;2024-03-02T12:10:24;25.10;;;12.30;;
17965;SDS011;9108;53.204;10.424;2024-03-02T12:12:55;25.13;;;12.35;;
17965;SDS011;9108;53.204;10.424;2024-03-02T12:15:23;23.42;;;11.90;;
17965;SDS011;9108;53.204;10.424;2024-03-02T12:17:52;24.27;;;12.18;;
17965;SDS011;9108;53.204;10.424;2024-03-02T12:20:19;23.43;;;11.67;;
17965;SDS011;9108;53.204;10.424;2024-03-02T12:22:48;24.63;;;11.65;;
17965;SDS011;9108;53.204;10.424;2024-03-02T12:25:17;24.80;;;11.65;;
17965;SDS011;9108;53.204;10.424;2024-03-02T12:27:44;23.48;;;11.75;;
17965;SDS011;9108;53.204;10.424;2024-03-02T12:30:12;23.70;;;11.50;;
17965;SDS011;9108;53.204;10.424;2024-03-02T12:32:39;22.17;;;10.90;;
17965;SDS011;9108;53.204;10.424;2024-03-02T12:35:07;20.92;;;10.82;;
17965;SDS011;9108;53.204;10.424;2024-03-02T12:37:41;20.77;;;10.80;;
17965;SDS011;9108;53.204;10.424;2024-03-02T12:40:09;20.38;;;10.10;;
17965;SDS011;9108;53.204;10.424;2024-03-02T12:42:38;21.00;;;10.25;;
17965;SDS011;9108;53.204;10.424;2024-03-02T12:45:05;19.48;;;10.00;;
17965;SDS011;9108;53.204;10.424;2024-03-02T12:47:32;20.35;;;10.18;;
17965;SDS011;9108;53.204;10.424;2024-03-02T12:50:00;22.95;;;10.98;;
17965;SDS011;9108;53.204;10.424;2024-03-02T12:52:27;23.20;;;11.18;;
17965;SDS011;9108;53.204;10.424;2024-03-02T12:54:55;23.33;;;11.80;;
17965;SDS011;9108;53.204;10.424;2024-03-02T12:57:25;24.95;;;12.40;;
17965;SDS011;9108;53.204;10.424;2024-03-02T12:59:57;23.67;;;11.95;;
17965;SDS011;9108;53.204;10.424;2024-03-02T13:02:27;23.58;;;11.40;;
17965;SDS011;9108;53.204;10.424;2024-03-02T13:04:55;25.15;;;12.23;;
17965;SDS011;9108;53.204;10.424;2024-03-02T13:07:23;23.30;;;12.13;;
17965;SDS011;9108;53.204;10.424;2024-03-02T13:09:50;25.30;;;12.90;;
17965;SDS011;9108;53.204;10.424;2024-03-02T13:12:18;25.80;;;12.73;;
17965;SDS011;9108;53.204;10.424;2024-03-02T13:14:48;23.03;;;12.60;;
17965;SDS011;9108;53.204;10.424;2024-03-02T13:17:17;26.13;;;12.63;;
17965;SDS011;9108;53.204;10.424;2024-03-02T13:19:51;26.83;;;12.80;;
17965;SDS011;9108;53.204;10.424;2024-03-02T13:22:18;23.40;;;12.45;;
17965;SDS011;9108;53.204;10.424;2024-03-02T13:24:46;23.27;;;12.25;;
17965;SDS011;9108;53.204;10.424;2024-03-02T13:27:13;24.65;;;12.50;;
17965;SDS011;9108;53.204;10.424;2024-03-02T13:29:41;25.70;;;12.93;;
17965;SDS011;9108;53.204;10.424;2024-03-02T13:32:08;25.95;;;12.00;;
17965;SDS011;9108;53.204;10.424;2024-03-02T13:34:37;25.13;;;13.35;;
17965;SDS011;9108;53.204;10.424;2024-03-02T13:37:04;22.75;;;11.63;;
17965;SDS011;9108;53.204;10.424;2024-03-02T13:39:31;21.60;;;11.13;;
17965;SDS011;9108;53.204;10.424;2024-03-02T13:42:04;23.23;;;10.97;;
17965;SDS011;9108;53.204;10.424;2024-03-02T13:44:33;25.92;;;11.63;;
17965;SDS011;9108;53.204;10.424;2024-03-02T13:47:00;20.97;;;10.90;;
17965;SDS011;9108;53.204;10.424;2024-03-02T13:49:27;21.65;;;10.70;;
17965;SDS011;9108;53.204;10.424;2024-03-02T13:52:00;21.17;;;10.27;;
17965;SDS011;9108;53.204;10.424;2024-03-02T13:54:29;22.08;;;10.55;;
17965;SDS011;9108;53.204;10.424;2024-03-02T13:56:56;20.08;;;9.85;;
17965;SDS011;9108;53.204;10.424;2024-03-02T13:59:24;19.67;;;9.85;;
17965;SDS011;9108;53.204;10.424;2024-03-02T14:01:51;19.70;;;9.83;;
17965;SDS011;9108;53.204;10.424;2024-03-02T14:04:19;20.00;;;9.27;;
17965;SDS011;9108;53.204;10.424;2024-03-02T14:06:46;20.02;;;9.23;;
17965;SDS011;9108;53.204;10.424;2024-03-02T14:09:14;22.13;;;9.85;;
17965;SDS011;9108;53.204;10.424;2024-03-02T14:11:41;20.58;;;9.55;;
17965;SDS011;9108;53.204;10.424;2024-03-02T14:14:08;19.20;;;9.18;;
17965;SDS011;9108;53.204;10.424;2024-03-02T14:16:36;17.65;;;9.15;;
17965;SDS011;9108;53.204;10.424;2024-03-02T14:19:03;19.58;;;9.10;;
17965;SDS011;9108;53.204;10.424;2024-03-02T14:21:30;20.85;;;9.18;;
17965;SDS011;9108;53.204;10.424;2024-03-02T14:23:57;17.88;;;8.43;;
17965;SDS011;9108;53.204;10.424;2024-03-02T14:26:25;18.45;;;8.73;;
17965;SDS011;9108;53.204;10.424;2024-03-02T14:28:53;17.70;;;8.03;;
17965;SDS011;9108;53.204;10.424;2024-03-02T14:31:20;15.80;;;8.05;;
17965;SDS011;9108;53.204;10.424;2024-03-02T14:33:47;15.48;;;7.82;;
17965;SDS011;9108;53.204;10.424;2024-03-02T14:36:14;16.50;;;8.35;;
17965;SDS011;9108;53.204;10.424;2024-03-02T14:38:42;19.85;;;10.43;;
17965;SDS011;9108;53.204;10.424;2024-03-02T14:41:09;17.42;;;8.30;;
17965;SDS011;9108;53.204;10.424;2024-03-02T14:43:38;20.88;;;10.25;;
17965;SDS011;9108;53.204;10.424;2024-03-02T14:46:05;17.15;;;8.20;;
17965;SDS011;9108;53.204;10.424;2024-03-02T14:48:34;19.83;;;10.60;;
17965;SDS011;9108;53.204;10.424;2024-03-02T14:51:01;16.75;;;8.98;;
17965;SDS011;9108;53.204;10.424;2024-03-02T14:53:28;14.25;;;7.50;;
17965;SDS011;9108;53.204;10.424;2024-03-02T14:55:55;16.45;;;8.25;;
17965;SDS011;9108;53.204;10.424;2024-03-02T14:58:23;14.87;;;6.47;;
17965;SDS011;9108;53.204;10.424;2024-03-02T15:00:52;14.67;;;6.60;;
17965;SDS011;9108;53.204;10.424;2024-03-02T15:03:20;16.58;;;6.90;;
17965;SDS011;9108;53.204;10.424;2024-03-02T15:05:47;14.85;;;6.97;;
17965;SDS011;9108;53.204;10.424;2024-03-02T15:08:16;13.02;;;6.65;;
17965;SDS011;9108;53.204;10.424;2024-03-02T15:10:43;14.40;;;6.70;;
17965;SDS011;9108;53.204;10.424;2024-03-02T15:13:11;14.48;;;6.55;;
17965;SDS011;9108;53.204;10.424;2024-03-02T15:15:38;12.73;;;6.57;;
17965;SDS011;9108;53.204;10.424;2024-03-02T15:18:06;12.60;;;6.32;;
17965;SDS011;9108;53.204;10.424;2024-03-02T15:20:34;12.82;;;6.15;;
17965;SDS011;9108;53.204;10.424;2024-03-02T15:23:01;22.58;;;10.68;;
17965;SDS011;9108;53.204;10.424;2024-03-02T15:25:28;15.27;;;7.65;;
17965;SDS011;9108;53.204;10.424;2024-03-02T15:27:55;16.63;;;7.88;;
17965;SDS011;9108;53.204;10.424;2024-03-02T15:30:23;14.80;;;6.97;;
17965;SDS011;9108;53.204;10.424;2024-03-02T15:32:50;17.27;;;8.20;;
17965;SDS011;9108;53.204;10.424;2024-03-02T15:35:21;16.60;;;8.88;;
17965;SDS011;9108;53.204;10.424;2024-03-02T15:38:03;17.60;;;9.18;;
17965;SDS011;9108;53.204;10.424;2024-03-02T15:40:37;18.25;;;8.82;;
17965;SDS011;9108;53.204;10.424;2024-03-02T15:43:04;21.20;;;9.65;;
17965;SDS011;9108;53.204;10.424;2024-03-02T15:45:31;18.50;;;9.45;;
17965;SDS011;9108;53.204;10.424;2024-03-02T15:47:59;18.88;;;9.45;;
17965;SDS011;9108;53.204;10.424;2024-03-02T15:50:27;18.00;;;9.20;;
17965;SDS011;9108;53.204;10.424;2024-03-02T15:52:54;19.07;;;8.90;;
17965;SDS011;9108;53.204;10.424;2024-03-02T15:55:27;17.60;;;8.70;;
17965;SDS011;9108;53.204;10.424;2024-03-02T15:57:54;16.08;;;8.00;;
17965;SDS011;9108;53.204;10.424;2024-03-02T16:00:21;17.95;;;8.25;;
17965;SDS011;9108;53.204;10.424;2024-03-02T16:02:48;16.65;;;8.00;;
17965;SDS011;9108;53.204;10.424;2024-03-02T16:05:15;15.43;;;7.68;;
17965;SDS011;9108;53.204;10.424;2024-03-02T16:07:44;13.98;;;7.53;;
17965;SDS011;9108;53.204;10.424;2024-03-02T16:10:12;15.13;;;7.38;;
17965;SDS011;9108;53.204;10.424;2024-03-02T16:12:39;12.63;;;6.78;;
17965;SDS011;9108;53.204;10.424;2024-03-02T16:15:06;15.17;;;7.50;;
17965;SDS011;9108;53.204;10.424;2024-03-02T16:17:33;16.80;;;8.32;;
17965;SDS011;9108;53.204;10.424;2024-03-02T16:20:01;18.48;;;9.60;;
17965;SDS011;9108;53.204;10.424;2024-03-02T16:22:31;15.43;;;7.97;;
17965;SDS011;9108;53.204;10.424;2024-03-02T16:24:59;20.17;;;10.80;;
17965;SDS011;9108;53.204;10.424;2024-03-02T16:27:26;17.02;;;8.95;;
17965;SDS011;9108;53.204;10.424;2024-03-02T16:29:53;15.93;;;8.63;;
17965;SDS011;9108;53.204;10.424;2024-03-02T16:32:23;17.10;;;7.77;;
17965;SDS011;9108;53.204;10.424;2024-03-02T16:34:51;16.48;;;7.75;;
17965;SDS011;9108;53.204;10.424;2024-03-02T16:37:18;16.77;;;8.68;;
17965;SDS011;9108;53.204;10.424;2024-03-02T16:39:45;14.57;;;7.22;;
17965;SDS011;9108;53.204;10.424;2024-03-02T16:42:15;14.18;;;7.40;;
17965;SDS011;9108;53.204;10.424;2024-03-02T16:44:45;15.82;;;8.18;;
17965;SDS011;9108;53.204;10.424;2024-03-02T16:47:13;13.82;;;6.72;;
17965;SDS011;9108;53.204;10.424;2024-03-02T16:49:43;15.80;;;6.88;;
17965;SDS011;9108;53.204;10.424;2024-03-02T16:52:10;15.68;;;7.13;;
17965;SDS011;9108;53.204;10.424;2024-03-02T16:54:39;16.48;;;8.15;;
17965;SDS011;9108;53.204;10.424;2024-03-02T16:57:06;18.25;;;8.40;;
17965;SDS011;9108;53.204;10.424;2024-03-02T16:59:35;18.48;;;9.70;;
17965;SDS011;9108;53.204;10.424;2024-03-02T17:02:03;19.67;;;9.32;;
17965;SDS011;9108;53.204;10.424;2024-03-02T17:04:30;16.10;;;8.43;;
17965;SDS011;9108;53.204;10.424;2024-03-02T17:06:58;18.90;;;9.05;;
17965;SDS011;9108;53.204;10.424;2024-03-02T17:09:25;19.48;;;8.73;;
17965;SDS011;9108;53.204;10.424;2024-03-02T17:11:52;19.75;;;9.90;;
17965;SDS011;9108;53.204;10.424;2024-03-02T17:14:19;19.83;;;10.33;;
17965;SDS011;9108;53.204;10.424;2024-03-02T17:16:47;19.63;;;9.90;;
17965;SDS011;9108;53.204;10.424;2024-03-02T17:19:15;23.13;;;11.63;;
17965;SDS011;9108;53.204;10.424;2024-03-02T17:21:42;26.17;;;11.83;;
17965;SDS011;9108;53.204;10.424;2024-03-02T17:24:09;26.10;;;11.80;;
17965;SDS011;9108;53.204;10.424;2024-03-02T17:26:36;26.85;;;14.18;;
17965;SDS011;9108;53.204;10.424;2024-03-02T17:29:05;27.40;;;13.18;;
17965;SDS011;9108;53.204;10.424;2024-03-02T17:31:32;26.60;;;12.32;;
17965;SDS011;9108;53.204;10.424;2024-03-02T17:34:00;24.83;;;11.80;;
17965;SDS011;9108;53.204;10.424;2024-03-02T17:36:28;24.63;;;11.25;;
17965;SDS011;9108;53.204;10.424;2024-03-02T17:38:55;22.40;;;10.65;;
17965;SDS011;9108;53.204;10.424;2024-03-02T17:41:22;24.25;;;10.90;;
17965;SDS011;9108;53.204;10.424;2024-03-02T17:43:50;20.38;;;9.98;;
17965;SDS011;9108;53.204;10.424;2024-03-02T17:46:17;20.63;;;9.70;;
17965;SDS011;9108;53.204;10.424;2024-03-02T17:48:44;22.83;;;10.80;;
17965;SDS011;9108;53.204;10.424;2024-03-02T17:51:12;23.63;;;10.95;;
17965;SDS011;9108;53.204;10.424;2024-03-02T17:53:40;25.83;;;11.63;;
17965;SDS011;9108;53.204;10.424;2024-03-02T17:56:09;23.20;;;11.40;;
17965;SDS011;9108;53.204;10.424;2024-03-02T17:58:36;24.33;;;12.18;;
17965;SDS011;9108;53.204;10.424;2024-03-02T18:01:03;25.25;;;12.50;;
17965;SDS011;9108;53.204;10.424;2024-03-02T18:03:30;25.55;;;12.75;;
17965;SDS011;9108;53.204;10.424;2024-03-02T18:05:57;25.05;;;12.30;;
17965;SDS011;9108;53.204;10.424;2024-03-02T18:08:26;25.57;;;12.20;;
17965;SDS011;9108;53.204;10.424;2024-03-02T18:10:53;29.25;;;13.32;;
17965;SDS011;9108;53.204;10.424;2024-03-02T18:13:23;27.63;;;12.90;;
17965;SDS011;9108;53.204;10.424;2024-03-02T18:15:50;28.02;;;13.30;;
17965;SDS011;9108;53.204;10.424;2024-03-02T18:18:18;29.42;;;13.50;;
17965;SDS011;9108;53.204;10.424;2024-03-02T18:20:45;28.77;;;13.30;;
17965;SDS011;9108;53.204;10.424;2024-03-02T18:23:13;29.13;;;13.35;;
17965;SDS011;9108;53.204;10.424;2024-03-02T18:25:42;29.75;;;13.45;;
17965;SDS011;9108;53.204;10.424;2024-03-02T18:28:12;26.98;;;13.18;;
17965;SDS011;9108;53.204;10.424;2024-03-02T18:30:39;25.55;;;12.73;;
17965;SDS011;9108;53.204;10.424;2024-03-02T18:33:07;28.85;;;13.05;;
17965;SDS011;9108;53.204;10.424;2024-03-02T18:35:34;27.98;;;13.18;;
17965;SDS011;9108;53.204;10.424;2024-03-02T18:38:01;27.63;;;13.37;;
17965;SDS011;9108;53.204;10.424;2024-03-02T18:40:29;30.73;;;13.90;;
17965;SDS011;9108;53.204;10.424;2024-03-02T18:42:57;30.33;;;13.93;;
17965;SDS011;9108;53.204;10.424;2024-03-02T18:45:26;45.42;;;21.05;;
17965;SDS011;9108;53.204;10.424;2024-03-02T18:47:53;35.93;;;16.80;;
17965;SDS011;9108;53.204;10.424;2024-03-02T18:50:21;34.75;;;15.10;;
17965;SDS011;9108;53.204;10.424;2024-03-02T18:52:48;31.42;;;14.30;;
17965;SDS011;9108;53.204;10.424;2024-03-02T18:55:15;28.73;;;14.32;;
17965;SDS011;9108;53.204;10.424;2024-03-02T18:57:42;31.95;;;15.07;;
17965;SDS011;9108;53.204;10.424;2024-03-02T19:00:13;31.10;;;14.75;;
17965;SDS011;9108;53.204;10.424;2024-03-02T19:02:40;32.33;;;15.02;;
17965;SDS011;9108;53.204;10.424;2024-03-02T19:05:08;38.83;;;18.23;;
17965;SDS011;9108;53.204;10.424;2024-03-02T19:07:35;43.33;;;19.88;;
17965;SDS011;9108;53.204;10.424;2024-03-02T19:10:03;40.88;;;19.15;;
17965;SDS011;9108;53.204;10.424;2024-03-02T19:12:32;36.75;;;16.83;;
17965;SDS011;9108;53.204;10.424;2024-03-02T19:14:59;41.47;;;21.45;;
17965;SDS011;9108;53.204;10.424;2024-03-02T19:17:28;33.63;;;16.75;;
17965;SDS011;9108;53.204;10.424;2024-03-02T19:19:55;34.90;;;17.47;;
17965;SDS011;9108;53.204;10.424;2024-03-02T19:22:22;37.08;;;19.10;;
17965;SDS011;9108;53.204;10.424;2024-03-02T19:24:51;42.00;;;20.48;;
17965;SDS011;9108;53.204;10.424;2024-03-02T19:27:18;36.70;;;17.67;;
17965;SDS011;9108;53.204;10.424;2024-03-02T19:29:45;34.95;;;17.00;;
17965;SDS011;9108;53.204;10.424;2024-03-02T19:32:13;37.60;;;17.08;;
17965;SDS011;9108;53.204;10.424;2024-03-02T19:34:41;38.35;;;16.80;;
17965;SDS011;9108;53.204;10.424;2024-03-02T19:37:08;35.00;;;16.70;;
17965;SDS011;9108;53.204;10.424;2024-03-02T19:39:35;37.80;;;18.17;;
17965;SDS011;9108;53.204;10.424;2024-03-02T19:42:06;34.83;;;16.35;;
17965;SDS011;9108;53.204;10.424;2024-03-02T19:44:34;36.53;;;16.85;;
17965;SDS011;9108;53.204;10.424;2024-03-02T19:47:01;35.90;;;16.52;;
17965;SDS011;9108;53.204;10.424;2024-03-02T19:49:28;39.15;;;18.58;;
17965;SDS011;9108;53.204;10.424;2024-03-02T19:51:56;40.53;;;18.00;;
17965;SDS011;9108;53.204;10.424;2024-03-02T19:54:23;37.35;;;17.80;;
17965;SDS011;9108;53.204;10.424;2024-03-02T19:56:51;42.17;;;18.77;;
17965;SDS011;9108;53.204;10.424;2024-03-02T19:59:20;40.47;;;17.55;;